Maersk Nimes — VRFO7 — position and weather

sailwx.info

Track history (hours):
 
Tides and Currents Weather Stations Pressure Air Temp Water Temp Dewpoint Dewpoint Depression Visibility Wind Speed Wind Dir Waves Ship Positions

Maersk Nimes

Last reported at 2018-Apr-15 10:47 UTC. Time now 2018-Apr-21 04:07 UTC.
Position N 09°34' W 079°49'.

Length 210 m; draft 11.2 m.

Type: Cargo ship. MMSI: 477559200.

Date/timePositionNaut miles runAvg speedWind from/ knotsBaromVisibWave heightAir tempDewpointWater temp
2018-Apr-15 10:47N 09°34' W 079°49'518.2
2018-Apr-15 10:30N 09°30' W 079°52'612.7
2018-Apr-15 10:00N 09°24' W 079°54'2 3.3
2018-Apr-15 09:28N 09°22' W 079°53'0 0.0
2018-Apr-15 08:58N 09°22' W 079°53'0 0.0
2018-Apr-15 08:28N 09°22' W 079°53'0 0.0
2018-Apr-15 07:58N 09°22' W 079°53'0 0.0
2018-Apr-15 07:25N 09°22' W 079°53'0 0.0
2018-Apr-15 06:58N 09°22' W 079°53'0 0.0
2018-Apr-15 06:28N 09°22' W 079°53'0 0.0
2018-Apr-15 05:58N 09°22' W 079°53'0 0.0
2018-Apr-15 05:28N 09°22' W 079°53'0 0.0
2018-Apr-15 04:58N 09°22' W 079°53'0 0.0
2018-Apr-15 04:28N 09°22' W 079°53'0 0.0
2018-Apr-15 03:58N 09°22' W 079°53'0 0.0
2018-Apr-15 03:28N 09°22' W 079°53'0 0.0
2018-Apr-15 02:58N 09°22' W 079°53'0 0.0
2018-Apr-15 02:28N 09°22' W 079°53'0 0.0
2018-Apr-15 01:58N 09°22' W 079°53'0 0.0
2018-Apr-15 01:28N 09°22' W 079°53'0 0.0
2018-Apr-15 00:58N 09°22' W 079°53'0 0.0
2018-Apr-15 00:28N 09°22' W 079°53'0 0.0
2018-Apr-14 23:58N 09°22' W 079°53'0 0.0
2018-Apr-14 23:28N 09°22' W 079°53'0 0.0
2018-Apr-14 22:58N 09°22' W 079°53'0 0.0
2018-Apr-14 22:28N 09°22' W 079°53'0 0.0
2018-Apr-14 21:58N 09°22' W 079°53'4 1.5
2018-Apr-14 19:06N 09°26' W 079°53'0 0.8
2018-Apr-14 19:00N 09°26' W 079°53'0 0.8
2018-Apr-14 18:30N 09°27' W 079°53'1 1.3
2018-Apr-14 18:00N 09°26' W 079°54'5 9.7
2018-Apr-14 17:30N 09°22' W 079°55'4 9.0
2018-Apr-14 17:00N 09°17' W 079°55'1 1.5
2018-Apr-14 16:28N 09°17' W 079°55'0 0.6
2018-Apr-14 16:00N 09°16' W 079°55'0 0.6
2018-Apr-14 15:30N 09°16' W 079°55'0 0.7
2018-Apr-14 15:00N 09°16' W 079°55'2 4.2
2018-Apr-14 14:30N 09°14' W 079°55'  
Track history (hours):
 
Tides and Currents Weather Stations Pressure Air Temp Water Temp Dewpoint Dewpoint Depression Visibility Wind Speed Wind Dir Waves Ship Positions

Maersk Nimes

Last reported at 2018-Apr-15 10:47 UTC. Time now 2018-Apr-21 04:07 UTC.
Position N 09°34' W 079°49'.

Length 210 m; draft 11.2 m.

Type: Cargo ship. MMSI: 477559200.

Date/timePositionNaut miles runAvg speedWind from/ knotsBaromVisibWave heightAir tempDewpointWater temp
2018-Apr-15 10:47N 09°34' W 079°49'518.2
2018-Apr-15 10:30N 09°30' W 079°52'612.7
2018-Apr-15 10:00N 09°24' W 079°54'2 3.3
2018-Apr-15 09:28N 09°22' W 079°53'0 0.0
2018-Apr-15 08:58N 09°22' W 079°53'0 0.0
2018-Apr-15 08:28N 09°22' W 079°53'0 0.0
2018-Apr-15 07:58N 09°22' W 079°53'0 0.0
2018-Apr-15 07:25N 09°22' W 079°53'0 0.0
2018-Apr-15 06:58N 09°22' W 079°53'0 0.0
2018-Apr-15 06:28N 09°22' W 079°53'0 0.0
2018-Apr-15 05:58N 09°22' W 079°53'0 0.0
2018-Apr-15 05:28N 09°22' W 079°53'0 0.0
2018-Apr-15 04:58N 09°22' W 079°53'0 0.0
2018-Apr-15 04:28N 09°22' W 079°53'0 0.0
2018-Apr-15 03:58N 09°22' W 079°53'0 0.0
2018-Apr-15 03:28N 09°22' W 079°53'0 0.0
2018-Apr-15 02:58N 09°22' W 079°53'0 0.0
2018-Apr-15 02:28N 09°22' W 079°53'0 0.0
2018-Apr-15 01:58N 09°22' W 079°53'0 0.0
2018-Apr-15 01:28N 09°22' W 079°53'0 0.0
2018-Apr-15 00:58N 09°22' W 079°53'0 0.0
2018-Apr-15 00:28N 09°22' W 079°53'0 0.0
2018-Apr-14 23:58N 09°22' W 079°53'0 0.0
2018-Apr-14 23:28N 09°22' W 079°53'0 0.0
2018-Apr-14 22:58N 09°22' W 079°53'0 0.0
2018-Apr-14 22:28N 09°22' W 079°53'0 0.0
2018-Apr-14 21:58N 09°22' W 079°53'4 1.5
2018-Apr-14 19:06N 09°26' W 079°53'0 0.8
2018-Apr-14 19:00N 09°26' W 079°53'0 0.8
2018-Apr-14 18:30N 09°27' W 079°53'1 1.3
2018-Apr-14 18:00N 09°26' W 079°54'5 9.7
2018-Apr-14 17:30N 09°22' W 079°55'4 9.0
2018-Apr-14 17:00N 09°17' W 079°55'1 1.5
2018-Apr-14 16:28N 09°17' W 079°55'0 0.6
2018-Apr-14 16:00N 09°16' W 079°55'0 0.6
2018-Apr-14 15:30N 09°16' W 079°55'0 0.7
2018-Apr-14 15:00N 09°16' W 079°55'2 4.2
2018-Apr-14 14:30N 09°14' W 079°55'  

Dump ship's entire track history